• Join FlightAware (Why Join?)
  • Login
  • US Flag 
12:08AM EDT


 

Airport Tracker/Info


-or-


 

Live Flight TrackerFlight Track Log ✈ JA-614J ✈ 16-Apr-2013 ✈ RKSI / ICN - RJAA / NRT

Flight Track Log - Related Links

Times and Time Zones

All times are in EDT time to prevent confusion due to time zone crossing. See the JA-614J flight status page for this flight to view local times or setup timezone preferences in your user account.

Time Position Orientation Groundspeed Altitude Reporting Facility
EDT Latitude Longitude Course Direction KTS MPH feet Rate Location/Type
07:09PM 37.4140 126.5210 130° Southeast 250 288 4,500  Level FlightAware
07:10PM 37.3890 126.5580 130° Southeast 285 328 5,700 2,520 Climbing FlightAware
07:10PM 37.3730 126.5800 132° Southeast 290 334 6,600 1,200 Climbing FlightAware
07:11PM 37.3480 126.6050 142° Southeast 290 334 6,600 840 Level FlightAware
07:11PM 37.3120 126.6120 171° South 277 319 7,300 960 Climbing FlightAware
07:12PM 37.2830 126.6340 149° Southeast 305 351 7,400 1,020 Climbing FlightAware
07:12PM 37.2750 126.6560 115° Southeast 317 365 8,000 2,880 Climbing FlightAware
07:12PM 37.2730 126.6760 97° East 326 375 8,600 3,000 Climbing FlightAware
07:12PM 37.2760 126.7360 86° East 338 389 10,000 1,320 Climbing FlightAware
07:13PM 37.2820 126.8240 85° East 342 394 10,300 180 Climbing FlightAware
07:14PM 37.2870 126.9020 85° East 342 394 10,300  Level FlightAware
07:15PM 37.2950 126.9930 84° East 343 395 10,300  Level FlightAware
07:15PM 37.3020 127.0730 84° East 344 396 10,300  Level FlightAware
07:16PM 37.3150 127.1310 74° East 340 391 10,300 720 Level FlightAware
07:16PM 37.3600 127.1980 50° Northeast 396 456 11,200 2,100 Climbing FlightAware
07:17PM 37.4100 127.2700 49° Northeast 418 481 13,100 3,060 Climbing FlightAware
07:18PM 37.4680 127.3530 49° Northeast 428 493 15,600 3,240 Climbing FlightAware
07:19PM 37.4980 127.4460 68° East 446 513 17,700 3,060 Climbing FlightAware
07:19PM 37.5170 127.5630 78° East 458 527 20,000 2,700 Climbing FlightAware
07:20PM 37.5330 127.6650 79° East 472 543 21,600 2,460 Climbing FlightAware
07:21PM 37.5520 127.7820 78° East 494 568 23,300 2,460 Climbing FlightAware
07:21PM 37.5710 127.9080 79° East 510 587 25,100 2,400 Climbing FlightAware
07:22PM 37.5900 128.0280 79° East 523 602 26,700 2,220 Climbing FlightAware
07:23PM 37.6110 128.1600 79° East 539 620 28,300 1,320 Climbing FlightAware
07:23PM 37.6280 128.2730 79° East 545 627 28,600 180 Climbing FlightAware
07:24PM 37.6440 128.3790 79° East 545 627 28,600  Level FlightAware
07:25PM 37.6610 128.4850 79° East 545 627 28,600  Level FlightAware
07:25PM 37.6770 128.5920 79° East 545 627 28,600  Level FlightAware
07:26PM 37.6930 128.6980 79° East 545 627 28,600  Level FlightAware
07:27PM 37.7140 128.8310 79° East 545 627 28,600 300 Level FlightAware
07:30PM 37.6746 129.1647 98° East  Level Estimated
07:31PM 37.6589 129.2954 99° East  Level Estimated
07:32PM 37.6431 129.4261 99° East  Level Estimated
07:33PM 37.6271 129.5567 99° East  Level Estimated
07:34PM 37.6109 129.6873 99° East  Level Estimated
07:35PM 37.5947 129.8179 99° East  Level Estimated
07:36PM 37.5782 129.9483 99° East  Level Estimated
07:37PM 37.5617 130.0787 99° East  Level Estimated
07:38PM 37.5449 130.2091 99° East  Level Estimated
07:39PM 37.5281 130.3394 99° East  Level Estimated
07:40PM 37.5111 130.4696 99° East  Level Estimated
07:41PM 37.4941 130.5986 99° East  Level Estimated
07:42PM 37.4770 130.7275 99° East  Level Estimated
07:43PM 37.4597 130.8564 100° East  Level Estimated
07:44PM 37.4423 130.9852 100° East  Level Estimated
07:45PM 37.4248 131.1139 100° East  Level Estimated
07:46PM 37.4071 131.2426 100° East  Level Estimated
07:47PM 37.3893 131.3712 100° East  Level Estimated
07:48PM 37.3713 131.4998 100° East  Level Estimated
07:49PM 37.3532 131.6283 100° East  Level Estimated
07:50PM 37.3350 131.7567 100° East  Level Estimated
07:51PM 37.3166 131.8851 100° East  Level Estimated
07:52PM 37.2981 132.0134 100° East  Level Estimated
07:53PM 37.2794 132.1416 100° East  Level Estimated
07:53PM 36.3020 133.3330 100° East 548 631 37,000  Level FlightAware
07:53PM 36.2980 133.4250 93° East 548 631 37,000  Level FlightAware
07:54PM 36.2890 133.6160 93° East 548 631 37,000  Level FlightAware
07:55PM 36.2820 133.7640 93° East 548 631 37,000  Level FlightAware
07:56PM 36.2750 133.8960 94° East 547 629 37,000  Level FlightAware
07:57PM 36.2590 134.2060 94° East 546 628 37,000  Level FlightAware
07:58PM 36.2520 134.3320 94° East 546 628 37,000  Level FlightAware
07:59PM 36.2460 134.4660 93° East 542 624 37,000  Level FlightAware
07:59PM 36.2580 134.5930 83° East 532 612 37,000  Level FlightAware
08:00PM 36.2790 134.7230 79° East 530 610 37,000  Level FlightAware
08:01PM 36.3000 134.8440 78° East 530 610 37,000  Level FlightAware
08:01PM 36.3200 134.9630 78° East 531 611 37,000  Level FlightAware
08:02PM 36.3420 135.0960 78° East 529 609 37,000  Level FlightAware
08:03PM 36.3600 135.2090 79° East 529 609 37,000  Level FlightAware
08:04PM 36.3830 135.3490 78° East 529 609 37,000  Level FlightAware
08:04PM 36.4020 135.4660 79° East 527 606 37,000  Level FlightAware
08:05PM 36.4200 135.5790 79° East 526 605 37,000  Level FlightAware
08:06PM 36.4430 135.7230 79° East 525 604 37,000  Level FlightAware
08:06PM 36.4610 135.8380 79° East 523 602 37,000  Level FlightAware
08:07PM 36.4820 135.9720 79° East 522 601 37,000  Level FlightAware
08:08PM 36.4990 136.0790 79° East 520 598 37,000  Level FlightAware
08:09PM 36.5190 136.2130 79° East 519 597 37,000  Level FlightAware
08:09PM 36.5390 136.3390 79° East 518 596 37,000  Level FlightAware
08:10PM 36.5560 136.4540 80° East 517 595 37,000  Level FlightAware
08:11PM 36.5760 136.5850 79° East 518 596 37,000  Level FlightAware
08:11PM 36.5930 136.7000 80° East 517 595 37,000  Level FlightAware
08:12PM 36.5940 136.7040 73° East 516 594 37,000 -60 Level FlightAware
08:15PM 36.5312 137.0046 104° East  Level Estimated
08:16PM 36.5046 137.1306 105° East  Level Estimated
08:17PM 36.4779 137.2565 105° East  Level Estimated
08:18PM 36.4510 137.3823 105° East  Level Estimated
08:19PM 36.4240 137.5081 105° East  Level Estimated
08:19PM 36.7900 138.0890 105° East 514 592 36,700  Level FlightAware
08:20PM 36.8050 138.1980 80° East 511 588 35,500 -2,280 Descending FlightAware
08:21PM 36.8240 138.3370 80° East 522 601 33,500 -1,800 Descending FlightAware
08:21PM 36.8390 138.4480 80° East 518 596 33,000 -300 Descending FlightAware
08:22PM 36.8620 138.6240 81° East 512 589 33,000  Level FlightAware
08:23PM 36.8770 138.7350 80° East 510 587 33,000  Level FlightAware
08:24PM 36.8940 138.8710 81° East 510 587 33,000  Level FlightAware
08:24PM 36.9100 138.9880 80° East 511 588 33,000  Level FlightAware
08:25PM 36.9250 139.1060 81° East 511 588 33,000  Level FlightAware
08:26PM 36.9420 139.2390 81° East 511 588 33,000 -240 Level FlightAware
08:26PM 36.9570 139.3550 81° East 511 588 32,700 -1,320 Descending FlightAware
08:27PM 36.9720 139.4700 81° East 511 588 31,300 -2,580 Descending FlightAware
08:28PM 36.9850 139.5770 81° East 514 592 29,300 -2,520 Descending FlightAware
08:29PM 37.0010 139.7040 81° East 491 565 27,800 -2,280 Descending FlightAware
08:29PM 37.0160 139.8220 81° East 477 549 26,100 -1,980 Descending FlightAware
08:30PM 37.0320 139.9520 81° East 466 536 25,000 -660 Descending FlightAware
08:31PM 37.0500 140.0960 81° East 473 544 25,000  Level FlightAware
08:32PM 37.0670 140.2400 82° East 474 545 25,000  Level FlightAware
08:32PM 37.0780 140.3340 82° East 475 547 25,000  Level FlightAware
08:33PM 37.0690 140.4100 98° East 479 551 25,000 -120 Level FlightAware
08:33PM 37.0200 140.4990 125° Southeast 471 542 24,900 -1,200 Descending FlightAware
08:34PM 36.9640 140.5370 152° Southeast 440 506 23,600 -2,940 Descending FlightAware
08:35PM 36.8850 140.5570 169° South 446 513 21,500 -2,760 Descending FlightAware
08:35PM 36.8000 140.5760 170° South 428 493 19,700 -2,400 Descending FlightAware
08:36PM 36.7200 140.5950 169° South 408 470 18,100 -2,400 Descending FlightAware
08:37PM 36.6460 140.6130 169° South 394 453 16,500 -2,400 Descending FlightAware
08:37PM 36.5710 140.6260 172° South 368 423 14,700 -2,460 Descending FlightAware
08:39PM 36.4410 140.5840 195° South 342 394 11,400 -1,800 Descending FlightAware
08:40PM 36.3670 140.5560 197° South 336 387 10,900 -480 Descending FlightAware
08:41PM 36.2160 140.5400 185° South 325 374 10,300 -960 Descending FlightAware
08:42PM 36.1270 140.4890 205° Southwest 268 308 8,200 -2,040 Descending FlightAware
08:44PM 36.0540 140.4390 209° Southwest 242 278 5,500 -1,440 Descending FlightAware
08:46PM 35.8323 140.3986 188° South  Level Estimated
08:47PM 35.7647 140.3864 188° South  Level Estimated
08:47PM 35.9210 140.3060 188° South 167 192 1,800  Level FlightAware
08:47PM 35.9030 140.3040 185° South 167 192 1,800  Level FlightAware
08:48PM 35.8870 140.3190 143° Southeast 162 186 1,800 -240 Level FlightAware
08:48PM 35.8690 140.3320 150° Southeast 142 163 1,600 -600 Descending FlightAware
08:49PM 35.8520 140.3440 150° Southeast 130 150 1,200 -720 Descending FlightAware
08:49PM 35.8370 140.3550 149° Southeast 130 150 900 -420 Descending FlightAware
08:50PM 35.8210 140.3670 149° Southeast 132 152 800 -180 Descending FlightAware